6NC9 weather

Moss Hill Airport
Kinston, North Carolina, United States

Public forecast

Using degrees Fahrenheit for public forecast. Weather courtesy of forecast.io.

METAR (pilot weather report)

Closest report is Kinston Regional Jetport At Stallings Field, 10.4 nm (19.3 km) NE. Retrieved 2019/06/18 21:56 UTC (55 minutes ago):

KISO 182156Z 15011G16KT 10SM SCT037 30/22 A2994

TAF (pilot weather forecast)

Closest forecast is Kinston Regional Jetport At Stallings Field, 10.4 nm (19.3 km) NE. Retrieved 2019/06/18 18:33 UTC (4 hours ago):

TAF KISO 181731Z 1818/1918 22010G15KT P6SM VCTS SCT045CB FM182300 18010KT P6SM BKN100 FM190900 VRB03KT P6SM SCT008 BKN020 FM191400 24005KT P6SM BKN070 AMD LTD TO CLD VIS AND WIND